Time,TemperatureF,DewpointF,PressureIn,WindDirection,WindDirectionDegrees,WindSpeedMPH,WindSpeedGustMPH,Humidity,HourlyPrecipIn,Conditions,Clouds,dailyrainin,SolarRadiationWatts/m^2,SoftwareType,DateUTC
2013-09-21 00:52:00,59.0,21.0,-100.00,NW,306,3.0,4.0,23,0.00,,,-99.99,0.000000,,2013-09-21 06:52:00,
2013-09-21 01:01:00,59.0,21.0,-100.00,NW,306,3.0,4.0,23,0.00,,,-99.99,0.000000,,2013-09-21 07:01:00,
2013-09-21 01:02:00,59.0,23.0,-100.00,WNW,290,2.0,4.0,25,0.00,,,0.00,0.000000,,2013-09-21 07:02:00,
2013-09-21 01:42:00,59.0,23.0,-100.00,WNW,290,2.0,4.0,25,0.00,,,0.00,0.000000,,2013-09-21 07:42:00,
2013-09-21 01:52:00,59.0,23.0,-100.00,WNW,290,2.0,4.0,25,0.00,,,0.00,0.000000,,2013-09-21 07:52:00,
2013-09-21 02:42:00,57.0,22.0,-100.00,WNW,282,3.0,6.0,25,0.00,,,-99.99,0.000000,,2013-09-21 08:42:00,
2013-09-21 02:52:00,57.0,22.0,-100.00,WNW,282,3.0,6.0,25,0.00,,,-99.99,0.000000,,2013-09-21 08:52:00,
2013-09-21 03:01:00,57.0,22.0,-100.00,WNW,282,3.0,6.0,25,0.00,,,-99.99,0.000000,,2013-09-21 09:01:00,
2013-09-21 03:02:00,56.0,23.0,-100.00,WNW,298,2.0,6.0,27,0.00,,,0.00,0.000000,,2013-09-21 09:02:00,
2013-09-21 03:43:00,56.0,23.0,-100.00,WNW,298,2.0,6.0,27,0.00,,,0.00,0.000000,,2013-09-21 09:43:00,
2013-09-21 03:54:00,56.0,23.0,-100.00,WNW,298,2.0,6.0,27,0.00,,,0.00,0.000000,,2013-09-21 09:54:00,
2013-09-21 04:02:00,57.0,22.0,-100.00,WNW,288,2.0,6.0,26,-99.99,,,0.00,0.000000,,2013-09-21 10:02:00,
2013-09-21 04:42:00,57.0,22.0,-100.00,WNW,288,2.0,6.0,26,-99.99,,,0.00,0.000000,,2013-09-21 10:42:00,
2013-09-21 04:52:00,57.0,22.0,-100.00,WNW,288,2.0,6.0,26,-99.99,,,0.00,0.000000,,2013-09-21 10:52:00,
2013-09-21 05:42:00,56.0,21.0,-100.00,West,276,2.0,7.0,25,-99.99,,,0.00,0.000000,,2013-09-21 11:42:00,
2013-09-21 07:42:00,56.0,20.0,-100.00,WNW,293,2.0,7.0,24,-99.99,,,-99.99,0.000000,,2013-09-21 13:42:00,
2013-09-21 08:22:00,54.0,22.0,-100.00,WNW,283,2.0,5.0,28,-99.99,,,0.00,12.000000,,2013-09-21 14:22:00,
2013-09-21 08:32:00,54.0,22.0,-100.00,WNW,283,2.0,5.0,28,-99.99,,,0.00,12.000000,,2013-09-21 14:32:00,
2013-09-21 08:42:00,54.0,22.0,-100.00,WNW,283,2.0,5.0,28,-99.99,,,0.00,12.000000,,2013-09-21 14:42:00,
2013-09-21 11:02:00,65.0,25.0,-100.00,SSE,150,4.0,9.0,22,0.00,,,0.00,448.000000,,2013-09-21 17:02:00,
2013-09-21 11:52:00,65.0,25.0,-100.00,SSE,150,4.0,9.0,22,0.00,,,0.00,448.000000,,2013-09-21 17:52:00,
2013-09-21 13:52:00,68.0,24.0,-100.00,SE,132,3.0,12.0,19,-99.99,,,0.00,597.000000,,2013-09-21 19:52:00,
2013-09-21 14:01:00,68.0,24.0,-100.00,SE,132,3.0,12.0,19,-99.99,,,0.00,597.000000,,2013-09-21 20:01:00,
2013-09-21 14:02:00,66.0,26.0,-100.00,SSW,198,4.0,11.0,22,0.00,,,0.00,377.000000,,2013-09-21 20:02:00,
2013-09-21 14:22:00,66.0,26.0,-100.00,SSW,198,4.0,11.0,22,0.00,,,0.00,377.000000,,2013-09-21 20:22:00,
2013-09-21 14:32:00,66.0,26.0,-100.00,SSW,198,4.0,11.0,22,0.00,,,0.00,377.000000,,2013-09-21 20:32:00,
2013-09-21 14:42:00,66.0,26.0,-100.00,SSW,198,4.0,11.0,22,0.00,,,0.00,377.000000,,2013-09-21 20:42:00,
2013-09-21 14:52:00,66.0,26.0,-100.00,SSW,198,4.0,11.0,22,0.00,,,0.00,377.000000,,2013-09-21 20:52:00,
2013-09-21 15:02:00,66.0,28.0,-100.00,WSW,238,3.0,12.0,24,0.00,,,0.00,356.000000,,2013-09-21 21:02:00,
2013-09-21 15:22:00,66.0,28.0,-100.00,WSW,238,3.0,12.0,24,0.00,,,0.00,356.000000,,2013-09-21 21:22:00,
2013-09-21 15:34:00,66.0,28.0,-100.00,WSW,238,3.0,12.0,24,0.00,,,0.00,356.000000,,2013-09-21 21:34:00,
2013-09-21 15:45:00,66.0,28.0,-100.00,WSW,238,3.0,12.0,24,0.00,,,0.00,356.000000,,2013-09-21 21:45:00,
2013-09-21 15:54:00,66.0,28.0,-100.00,WSW,238,3.0,12.0,24,0.00,,,0.00,356.000000,,2013-09-21 21:54:00,
2013-09-21 16:02:00,68.0,29.0,-100.00,SSE,156,5.0,10.0,23,0.00,,,0.00,535.000000,,2013-09-21 22:02:00,
2013-09-21 16:24:00,68.0,29.0,-100.00,SSE,156,5.0,10.0,23,0.00,,,0.00,535.000000,,2013-09-21 22:24:00,
2013-09-21 16:33:00,68.0,29.0,-100.00,SSE,156,5.0,10.0,23,0.00,,,0.00,535.000000,,2013-09-21 22:33:00,
2013-09-21 16:43:00,68.0,29.0,-100.00,SSE,156,5.0,10.0,23,0.00,,,0.00,535.000000,,2013-09-21 22:43:00,
2013-09-21 16:53:00,68.0,29.0,-100.00,SSE,156,5.0,10.0,23,0.00,,,0.00,535.000000,,2013-09-21 22:53:00,
2013-09-21 17:42:00,63.0,31.0,-100.00,SSE,160,3.0,7.0,30,0.00,,,0.00,229.000000,,2013-09-21 23:42:00,
2013-09-21 17:52:00,63.0,31.0,-100.00,SSE,160,3.0,7.0,30,0.00,,,0.00,229.000000,,2013-09-21 23:52:00,
2013-09-21 18:01:00,63.0,31.0,-100.00,SSE,160,3.0,7.0,30,0.00,,,0.00,229.000000,,2013-09-22 00:01:00,
2013-09-21 18:02:00,61.0,32.0,-100.00,SSW,201,3.0,9.0,34,0.00,,,0.00,127.000000,,2013-09-22 00:02:00,
2013-09-21 18:23:00,61.0,32.0,-100.00,SSW,201,3.0,9.0,34,0.00,,,0.00,127.000000,,2013-09-22 00:23:00,
2013-09-21 18:32:00,61.0,32.0,-100.00,SSW,201,3.0,9.0,34,0.00,,,0.00,127.000000,,2013-09-22 00:32:00,
2013-09-21 18:43:00,61.0,32.0,-100.00,SSW,201,3.0,9.0,34,0.00,,,0.00,127.000000,,2013-09-22 00:43:00,
2013-09-21 18:52:00,61.0,32.0,-100.00,SSW,201,3.0,9.0,34,0.00,,,0.00,127.000000,,2013-09-22 00:52:00,
2013-09-21 19:02:00,58.0,32.0,-100.00,SE,128,2.0,7.0,37,0.00,,,0.00,61.000000,,2013-09-22 01:02:00,
2013-09-21 19:42:00,58.0,32.0,-100.00,SE,128,2.0,7.0,37,0.00,,,0.00,61.000000,,2013-09-22 01:42:00,
2013-09-21 19:52:00,58.0,32.0,-100.00,SE,128,2.0,7.0,37,0.00,,,0.00,61.000000,,2013-09-22 01:52:00,
2013-09-21 20:02:00,54.0,33.0,-100.00,North,5,3.0,5.0,45,0.00,,,0.00,12.000000,,2013-09-22 02:02:00,
2013-09-21 20:42:00,54.0,33.0,-100.00,North,5,3.0,5.0,45,0.00,,,0.00,12.000000,,2013-09-22 02:42:00,
2013-09-21 20:52:00,54.0,33.0,-100.00,North,5,3.0,5.0,45,0.00,,,0.00,12.000000,,2013-09-22 02:52:00,
2013-09-21 21:02:00,-999.0,-99.9,-100.00,North,11,2.0,6.0,-999,-99.99,,,-99.99,0.000000,,2013-09-22 03:02:00,
2013-09-21 21:22:00,53.0,34.0,-100.00,North,11,2.0,6.0,48,0.00,,,0.00,0.000000,,2013-09-22 03:22:00,
2013-09-21 21:34:00,53.0,34.0,-100.00,North,11,2.0,6.0,48,0.00,,,0.00,0.000000,,2013-09-22 03:34:00,
2013-09-21 21:45:00,53.0,34.0,-100.00,North,11,2.0,6.0,48,0.00,,,0.00,0.000000,,2013-09-22 03:45:00,
2013-09-21 21:54:00,53.0,34.0,-100.00,North,11,2.0,6.0,48,0.00,,,0.00,0.000000,,2013-09-22 03:54:00,
2013-09-21 22:02:00,52.0,33.0,-100.00,WNW,290,1.0,7.0,49,0.00,,,0.00,0.000000,,2013-09-22 04:02:00,
2013-09-21 22:24:00,52.0,33.0,-100.00,WNW,290,1.0,7.0,49,0.00,,,0.00,0.000000,,2013-09-22 04:24:00,
2013-09-21 22:33:00,52.0,33.0,-100.00,WNW,290,1.0,7.0,49,0.00,,,0.00,0.000000,,2013-09-22 04:33:00,
2013-09-21 22:44:00,52.0,33.0,-100.00,WNW,290,1.0,7.0,49,0.00,,,0.00,0.000000,,2013-09-22 04:44:00,
2013-09-21 22:54:00,52.0,33.0,-100.00,WNW,290,1.0,7.0,49,0.00,,,0.00,0.000000,,2013-09-22 04:54:00,
2013-09-21 23:02:00,51.0,34.0,-100.00,NW,321,2.0,3.0,52,0.00,,,0.00,0.000000,,2013-09-22 05:02:00,
2013-09-21 23:23:00,51.0,34.0,-100.00,NW,321,2.0,3.0,52,0.00,,,0.00,0.000000,,2013-09-22 05:23:00,
2013-09-21 23:34:00,51.0,34.0,-100.00,NW,321,2.0,3.0,52,0.00,,,0.00,0.000000,,2013-09-22 05:34:00,
2013-09-21 23:43:00,51.0,34.0,-100.00,NW,321,2.0,3.0,52,0.00,,,0.00,0.000000,,2013-09-22 05:43:00,
2013-09-21 23:53:00,51.0,34.0,-100.00,NW,321,2.0,3.0,52,0.00,,,0.00,0.000000,,2013-09-22 05:53:00,